Time;durP1;ratioP1;P1;durP2;ratioP2;P2;SDS_P1;SDS_P2;PMS_P1;PMS_P2;Temp;Humidity;BMP_temperature;BMP_pressure;BME280_temperature;BME280_humidity;BME280_pressure;Samples;Min_cycle;Max_cycle;Signal;HPM_P1;HPM_P2
2023/09/05 00:00:26;;;;;;;4.85;2.65;;;22.60;54.40;;;;;;5086211;28;20268;-42
2023/09/05 00:02:53;;;;;;;6.10;3.22;;;22.60;54.40;;;;;;5072729;28;20215;-42
2023/09/05 00:05:23;;;;;;;3.90;3.00;;;22.60;54.30;;;;;;5085168;28;20254;-43
2023/09/05 00:07:52;;;;;;;3.67;3.00;;;22.60;54.40;;;;;;5067107;28;20226;-42
2023/09/05 00:10:20;;;;;;;3.95;3.55;;;22.50;54.40;;;;;;5067417;28;20283;-43
2023/09/05 00:12:51;;;;;;;5.78;3.60;;;22.50;54.50;;;;;;5086210;28;20198;-42
2023/09/05 00:15:18;;;;;;;4.40;3.45;;;22.50;54.60;;;;;;5067492;28;20299;-43
2023/09/05 00:17:48;;;;;;;6.50;3.75;;;22.50;54.60;;;;;;5084755;28;20762;-42
2023/09/05 00:20:15;;;;;;;5.05;3.15;;;22.50;54.70;;;;;;5080182;28;20512;-43
2023/09/05 00:22:43;;;;;;;6.85;3.22;;;22.40;54.70;;;;;;5052865;28;20298;-43
2023/09/05 00:25:12;;;;;;;6.15;3.45;;;22.40;54.70;;;;;;5069780;28;20224;-43
2023/09/05 00:27:43;;;;;;;5.18;3.20;;;22.40;54.70;;;;;;5087998;28;20594;-43
2023/09/05 00:30:13;;;;;;;4.97;3.28;;;22.30;54.70;;;;;;5087504;28;20246;-42
2023/09/05 00:32:40;;;;;;;6.38;3.25;;;22.30;54.70;;;;;;5085842;28;20195;-43
2023/09/05 00:35:13;;;;;;;5.05;3.65;;;22.30;54.80;;;;;;5049922;28;20325;-42
2023/09/05 00:37:40;;;;;;;5.63;3.40;;;22.20;54.80;;;;;;5086044;28;20659;-43
2023/09/05 00:40:08;;;;;;;4.97;3.17;;;22.20;54.90;;;;;;5085559;28;20291;-43
2023/09/05 00:42:37;;;;;;;5.68;3.40;;;22.20;54.90;;;;;;5085791;28;20665;-43
2023/09/05 00:45:07;;;;;;;6.22;3.30;;;22.10;54.90;;;;;;5063171;28;20219;-43
2023/09/05 00:47:34;;;;;;;4.55;3.10;;;22.10;54.90;;;;;;5031144;28;20210;-42
2023/09/05 00:50:09;;;;;;;5.05;3.47;;;22.10;55.00;;;;;;5065249;28;20314;-42
2023/09/05 00:52:36;;;;;;;4.93;3.45;;;22.10;55.10;;;;;;5065790;28;20286;-42
2023/09/05 00:55:04;;;;;;;5.80;3.45;;;22.00;55.00;;;;;;5065565;28;20211;-42
2023/09/05 00:57:35;;;;;;;4.72;2.95;;;22.00;55.10;;;;;;5065043;28;20196;-43
2023/09/05 01:00:05;;;;;;;3.90;2.88;;;21.90;55.10;;;;;;5064454;28;20831;-42
2023/09/05 01:02:32;;;;;;;6.72;3.70;;;21.90;55.20;;;;;;5034408;28;20227;-43
2023/09/05 01:04:59;;;;;;;7.13;3.65;;;21.90;55.30;;;;;;5056021;28;20723;-42
2023/09/05 01:07:43;;;;;;;4.28;2.85;;;21.80;55.30;;;;;;5037941;28;20203;-43
2023/09/05 01:10:51;;;;;;;5.35;3.10;;;21.80;55.50;;;;;;5049756;28;20215;-43
2023/09/05 01:13:26;;;;;;;4.20;2.88;;;21.70;55.80;;;;;;5027199;28;20214;-42
2023/09/05 01:15:54;;;;;;;4.93;3.13;;;21.70;55.40;;;;;;5051372;28;20264;-42
2023/09/05 01:18:23;;;;;;;6.18;3.25;;;21.70;55.50;;;;;;5070705;28;20203;-42
2023/09/05 01:21:14;;;;;;;6.32;3.20;;;21.70;55.50;;;;;;5066345;28;20302;-42
2023/09/05 01:23:45;;;;;;;5.38;3.28;;;21.60;55.60;;;;;;5066636;28;20207;-42
2023/09/05 01:26:18;;;;;;;3.53;3.17;;;21.60;55.60;;;;;;5048922;28;20203;-42
2023/09/05 01:28:51;;;;;;;7.72;3.60;;;21.60;55.60;;;;;;5067445;28;20226;-42
2023/09/05 01:31:21;;;;;;;4.40;3.33;;;21.50;55.60;;;;;;5066910;28;20208;-42
2023/09/05 01:33:48;;;;;;;4.25;3.13;;;21.50;55.70;;;;;;5065012;28;20226;-42
2023/09/05 01:36:15;;;;;;;5.28;3.75;;;21.50;55.70;;;;;;5064549;28;20202;-43
2023/09/05 01:38:43;;;;;;;5.97;3.53;;;21.40;55.80;;;;;;5070515;28;20582;-42
2023/09/05 01:41:15;;;;;;;6.45;3.55;;;21.40;55.80;;;;;;5085341;28;20314;-42
2023/09/05 01:43:42;;;;;;;4.03;3.25;;;21.30;55.80;;;;;;5085338;28;20191;-42
2023/09/05 01:46:11;;;;;;;6.28;3.70;;;21.30;55.90;;;;;;5086910;28;20339;-42
2023/09/05 01:48:38;;;;;;;6.45;3.50;;;21.30;56.00;;;;;;5070786;28;20203;-43
2023/09/05 01:51:06;;;;;;;6.25;3.25;;;21.30;56.00;;;;;;5088395;28;20325;-43
2023/09/05 01:53:35;;;;;;;4.38;3.58;;;21.20;56.00;;;;;;5070692;28;20258;-43
2023/09/05 01:56:02;;;;;;;3.60;3.20;;;21.20;56.20;;;;;;5087120;28;20217;-43
2023/09/05 01:58:31;;;;;;;4.82;4.10;;;21.10;56.20;;;;;;5087282;28;20203;-43
2023/09/05 02:01:06;;;;;;;5.68;3.40;;;21.10;56.30;;;;;;5088738;28;20694;-42
2023/09/05 02:03:34;;;;;;;5.35;3.58;;;21.10;56.40;;;;;;5070995;28;20207;-43
2023/09/05 02:06:06;;;;;;;7.32;3.65;;;21.10;56.30;;;;;;5086432;28;20345;-34
2023/09/05 02:08:36;;;;;;;5.20;3.83;;;21.10;56.40;;;;;;5069450;28;20191;-33
2023/09/05 02:11:04;;;;;;;5.88;4.03;;;21.00;56.40;;;;;;5084510;28;20590;-33
2023/09/05 02:13:31;;;;;;;4.65;3.30;;;21.00;56.50;;;;;;5070323;28;20650;-34
2023/09/05 02:16:01;;;;;;;4.50;3.40;;;21.00;56.50;;;;;;5085155;28;20704;-36
2023/09/05 02:18:33;;;;;;;4.00;3.60;;;20.90;56.60;;;;;;5051886;28;20203;-34
2023/09/05 02:21:03;;;;;;;4.72;3.83;;;20.90;56.60;;;;;;5067416;28;20735;-34
2023/09/05 02:23:32;;;;;;;6.72;3.63;;;20.90;56.70;;;;;;5069862;28;20200;-33
2023/09/05 02:26:01;;;;;;;5.72;4.00;;;20.90;56.70;;;;;;5066956;28;20227;-34
2023/09/05 02:28:31;;;;;;;5.82;3.78;;;20.90;56.80;;;;;;5067982;28;20212;-33
2023/09/05 02:31:06;;;;;;;5.68;3.80;;;20.80;57.30;;;;;;5033900;28;20292;-34
2023/09/05 02:33:38;;;;;;;3.90;3.58;;;20.80;56.80;;;;;;5094601;28;20202;-34
2023/09/05 02:36:10;;;;;;;7.82;4.13;;;20.80;56.80;;;;;;5085464;28;20728;-33
2023/09/05 02:38:44;;;;;;;5.25;3.63;;;20.80;57.00;;;;;;5086522;28;20206;-33
2023/09/05 02:41:16;;;;;;;6.10;4.45;;;20.70;57.00;;;;;;5069883;28;20290;-34
2023/09/05 02:43:44;;;;;;;6.05;3.92;;;20.70;57.10;;;;;;5088137;28;20290;-43
2023/09/05 02:46:12;;;;;;;5.63;5.13;;;20.70;57.10;;;;;;5069368;28;20213;-42
2023/09/05 02:48:42;;;;;;;4.82;4.20;;;20.70;57.10;;;;;;5087528;28;20206;-42
2023/09/05 02:51:14;;;;;;;4.65;4.15;;;20.60;57.10;;;;;;5068965;28;20593;-42
2023/09/05 02:53:43;;;;;;;5.28;4.05;;;20.60;57.20;;;;;;5070031;28;20203;-42
2023/09/05 02:56:14;;;;;;;5.15;3.90;;;20.60;57.20;;;;;;5087738;28;20787;-42
2023/09/05 02:58:46;;;;;;;9.60;4.55;;;20.60;57.20;;;;;;5068625;28;20607;-42
2023/09/05 03:01:14;;;;;;;5.50;4.25;;;20.60;57.30;;;;;;5087111;28;20237;-42
2023/09/05 03:03:42;;;;;;;6.15;4.22;;;20.60;57.20;;;;;;5077823;28;20279;-42
2023/09/05 03:06:16;;;;;;;6.50;4.30;;;20.60;57.40;;;;;;5068444;28;20312;-41
2023/09/05 03:08:46;;;;;;;5.47;4.57;;;20.60;57.30;;;;;;5051001;28;20196;-42
2023/09/05 03:11:21;;;;;;;5.03;4.50;;;20.50;57.40;;;;;;5068888;28;20211;-42
2023/09/05 03:13:50;;;;;;;6.18;4.60;;;20.50;57.50;;;;;;5068792;28;20322;-42
2023/09/05 03:16:18;;;;;;;7.22;4.40;;;20.50;57.60;;;;;;5050991;28;20203;-42
2023/09/05 03:18:45;;;;;;;4.63;3.88;;;20.50;57.70;;;;;;5050233;28;20253;-42
2023/09/05 03:21:18;;;;;;;6.40;4.50;;;20.40;57.60;;;;;;5064687;28;20294;-42
2023/09/05 03:23:48;;;;;;;5.68;4.22;;;20.40;57.70;;;;;;5065356;28;20291;-42
2023/09/05 03:26:18;;;;;;;6.15;4.32;;;20.40;57.70;;;;;;5049358;28;20207;-42
2023/09/05 03:28:48;;;;;;;6.15;4.00;;;20.40;57.70;;;;;;5087002;28;20205;-42
2023/09/05 03:31:15;;;;;;;7.55;4.20;;;20.30;57.60;;;;;;5086888;28;20223;-43
2023/09/05 03:33:42;;;;;;;4.40;4.00;;;20.30;57.60;;;;;;5085605;28;20214;-43
2023/09/05 03:36:11;;;;;;;6.43;4.70;;;20.30;57.70;;;;;;5086132;28;20203;-43
2023/09/05 03:38:38;;;;;;;4.68;4.20;;;20.30;57.60;;;;;;5085230;28;20211;-43
2023/09/05 03:41:06;;;;;;;8.10;4.47;;;20.30;57.70;;;;;;5085075;28;20199;-42
2023/09/05 03:43:38;;;;;;;5.95;4.28;;;20.30;57.70;;;;;;5086820;28;20195;-41
2023/09/05 03:46:05;;;;;;;5.38;4.53;;;20.30;57.80;;;;;;5084999;28;20199;-43
2023/09/05 03:48:39;;;;;;;5.28;4.22;;;20.20;57.90;;;;;;5086650;28;20211;-41
2023/09/05 03:51:13;;;;;;;5.30;4.13;;;20.20;57.90;;;;;;5068350;28;20222;-42
2023/09/05 03:53:40;;;;;;;4.80;4.30;;;20.20;57.90;;;;;;5068363;28;20201;-42
2023/09/05 03:56:10;;;;;;;8.18;4.63;;;20.20;57.90;;;;;;5084983;28;20217;-42
2023/09/05 03:58:42;;;;;;;7.07;4.10;;;20.20;57.90;;;;;;5076056;28;20227;-42
2023/09/05 04:01:16;;;;;;;6.93;4.70;;;20.10;57.90;;;;;;5066281;28;20235;-42
2023/09/05 04:03:45;;;;;;;6.45;4.65;;;20.10;58.00;;;;;;5067808;28;20210;-42
2023/09/05 04:06:13;;;;;;;6.03;4.55;;;20.10;57.90;;;;;;5065382;28;20219;-43
2023/09/05 04:08:40;;;;;;;8.27;4.95;;;20.10;57.90;;;;;;5067013;28;20206;-42
2023/09/05 04:11:09;;;;;;;4.85;3.92;;;20.00;58.00;;;;;;5048379;28;20681;-42
2023/09/05 04:13:37;;;;;;;5.07;4.18;;;20.00;57.90;;;;;;5065997;28;20565;-42
2023/09/05 04:16:05;;;;;;;4.63;4.00;;;20.00;58.50;;;;;;5073724;28;20256;-42
2023/09/05 04:18:35;;;;;;;5.95;4.50;;;20.00;58.00;;;;;;5067950;28;20787;-41
2023/09/05 04:21:03;;;;;;;4.78;3.88;;;19.90;58.00;;;;;;5085055;28;20624;-42
2023/09/05 04:23:31;;;;;;;5.60;4.55;;;19.90;58.60;;;;;;5086175;28;20207;-42
2023/09/05 04:26:02;;;;;;;7.10;4.45;;;19.90;58.00;;;;;;5085857;28;20306;-42
2023/09/05 04:28:30;;;;;;;6.60;4.80;;;19.90;58.00;;;;;;5067285;28;20328;-41
2023/09/05 04:31:04;;;;;;;4.90;4.40;;;19.80;58.10;;;;;;5096227;28;20750;-43
2023/09/05 04:33:37;;;;;;;5.65;4.53;;;19.80;58.40;;;;;;5067525;28;20282;-43
2023/09/05 04:36:08;;;;;;;5.32;4.15;;;19.80;58.20;;;;;;5072779;28;20203;-42
2023/09/05 04:38:39;;;;;;;6.60;4.65;;;19.70;58.30;;;;;;5074976;28;20298;-42
2023/09/05 04:41:07;;;;;;;7.40;4.47;;;19.70;58.30;;;;;;5031005;28;20221;-43
2023/09/05 04:43:37;;;;;;;8.00;4.35;;;19.70;58.40;;;;;;5054398;28;20700;-42
2023/09/05 04:46:05;;;;;;;6.35;4.38;;;19.70;58.40;;;;;;5065550;28;20356;-41
2023/09/05 04:48:35;;;;;;;5.90;4.28;;;19.60;58.50;;;;;;5065888;28;20231;-42
2023/09/05 04:51:05;;;;;;;6.35;4.50;;;19.60;58.40;;;;;;5064594;28;20223;-43
2023/09/05 04:53:33;;;;;;;7.40;4.90;;;19.60;58.50;;;;;;5065630;28;20195;-42
2023/09/05 04:56:02;;;;;;;8.02;4.70;;;19.60;58.50;;;;;;5048880;28;20203;-42
2023/09/05 04:58:30;;;;;;;8.95;5.18;;;19.60;58.60;;;;;;5074087;28;20222;-42
2023/09/05 05:01:02;;;;;;;5.70;4.47;;;19.50;58.50;;;;;;5077549;28;20326;-42
2023/09/05 05:03:35;;;;;;;7.28;4.55;;;19.50;58.60;;;;;;5084377;28;20218;-43
2023/09/05 05:06:05;;;;;;;10.07;5.15;;;19.50;58.60;;;;;;5055045;28;20314;-43
2023/09/05 05:08:34;;;;;;;6.68;4.63;;;19.50;58.70;;;;;;5052992;28;20644;-42
2023/09/05 05:11:05;;;;;;;5.68;4.28;;;19.40;58.70;;;;;;5073463;28;20261;-43
2023/09/05 05:13:34;;;;;;;7.65;5.03;;;19.40;58.60;;;;;;5065317;28;20609;-43
2023/09/05 05:16:06;;;;;;;7.75;5.15;;;19.40;58.70;;;;;;5070742;28;20215;-42
2023/09/05 05:18:33;;;;;;;9.48;5.07;;;19.40;58.70;;;;;;5083144;28;20244;-42
2023/09/05 05:21:00;;;;;;;7.60;4.97;;;19.40;58.70;;;;;;5078052;28;20642;-43
2023/09/05 05:23:29;;;;;;;7.10;4.63;;;19.40;58.80;;;;;;5066821;28;20218;-44
2023/09/05 05:26:02;;;;;;;6.88;4.60;;;19.40;58.80;;;;;;5070988;28;20210;-43
2023/09/05 05:28:29;;;;;;;8.07;5.25;;;19.30;58.70;;;;;;5078299;28;20203;-43
2023/09/05 05:30:56;;;;;;;9.38;5.22;;;19.30;58.80;;;;;;5068045;28;20570;-42
2023/09/05 05:33:28;;;;;;;7.55;4.93;;;19.40;58.90;;;;;;5075158;28;20795;-43
2023/09/05 05:35:58;;;;;;;7.30;4.90;;;19.30;58.90;;;;;;5069712;28;20326;-43
2023/09/05 05:38:25;;;;;;;8.07;4.93;;;19.30;58.90;;;;;;5089176;28;20217;-43
2023/09/05 05:40:53;;;;;;;11.90;5.50;;;19.30;58.90;;;;;;5089287;28;20203;-34
2023/09/05 05:43:22;;;;;;;22.70;7.03;;;19.30;58.90;;;;;;5088856;28;20217;-34
2023/09/05 05:45:54;;;;;;;17.92;6.13;;;19.30;58.90;;;;;;5065964;28;20208;-34
2023/09/05 05:48:26;;;;;;;15.27;5.43;;;19.30;58.90;;;;;;5049479;28;20685;-34
2023/09/05 05:50:55;;;;;;;14.95;6.10;;;19.30;58.90;;;;;;5072993;28;20233;-34
2023/09/05 05:53:27;;;;;;;13.40;6.10;;;19.30;58.90;;;;;;5074794;28;20203;-34
2023/09/05 05:55:54;;;;;;;11.82;5.28;;;19.30;59.00;;;;;;5067333;28;20207;-34
2023/09/05 05:58:23;;;;;;;11.07;5.47;;;19.30;59.00;;;;;;5086817;28;20230;-34
2023/09/05 06:00:51;;;;;;;7.90;5.68;;;19.30;59.10;;;;;;5064411;28;20234;-34
2023/09/05 06:03:19;;;;;;;13.95;6.05;;;19.30;59.20;;;;;;5089839;28;20203;-34
2023/09/05 06:05:47;;;;;;;10.90;5.28;;;19.30;59.20;;;;;;5065692;28;20210;-43
2023/09/05 06:08:17;;;;;;;8.50;5.30;;;19.30;59.20;;;;;;5065944;28;20214;-43
2023/09/05 06:10:45;;;;;;;7.60;5.05;;;19.30;59.20;;;;;;5068358;28;20577;-43
2023/09/05 06:13:12;;;;;;;9.35;5.55;;;19.30;59.10;;;;;;5068385;28;20203;-43
2023/09/05 06:15:40;;;;;;;11.73;5.63;;;19.30;59.00;;;;;;5069841;28;20572;-43
2023/09/05 06:18:11;;;;;;;12.10;6.20;;;19.40;59.10;;;;;;5073921;28;20203;-42
2023/09/05 06:20:41;;;;;;;12.25;5.43;;;19.40;59.00;;;;;;5068990;28;20203;-43
2023/09/05 06:23:08;;;;;;;19.88;6.68;;;19.40;59.00;;;;;;5084359;28;20199;-43
2023/09/05 06:25:38;;;;;;;11.30;5.88;;;19.40;59.00;;;;;;5085872;28;20494;-43
2023/09/05 06:28:06;;;;;;;20.73;6.03;;;19.40;58.90;;;;;;5087457;28;20227;-42
2023/09/05 06:30:35;;;;;;;15.27;6.38;;;19.40;58.80;;;;;;5072016;28;20261;-43
2023/09/05 06:33:03;;;;;;;15.43;6.10;;;19.50;59.00;;;;;;5068918;28;20207;-43
2023/09/05 06:35:30;;;;;;;18.38;7.85;;;19.50;58.90;;;;;;5072008;28;20302;-43
2023/09/05 06:37:57;;;;;;;32.65;9.00;;;19.50;59.00;;;;;;5074061;28;20621;-43
2023/09/05 06:40:25;;;;;;;21.85;7.80;;;19.50;59.00;;;;;;5078996;28;20298;-43
2023/09/05 06:42:52;;;;;;;20.90;7.05;;;19.50;59.00;;;;;;5082042;28;20207;-43
2023/09/05 06:45:22;;;;;;;14.10;6.45;;;19.50;58.90;;;;;;5076892;28;20208;-43
2023/09/05 06:47:54;;;;;;;16.58;7.00;;;19.50;58.90;;;;;;5078106;28;20209;-43
2023/09/05 06:50:22;;;;;;;32.03;9.05;;;19.50;58.80;;;;;;5061507;28;20230;-43
2023/09/05 06:52:49;;;;;;;28.73;8.63;;;19.50;58.90;;;;;;5064039;28;20637;-43
2023/09/05 06:55:16;;;;;;;26.95;7.68;;;19.60;58.90;;;;;;5086923;28;20385;-43
2023/09/05 06:57:48;;;;;;;24.58;8.80;;;19.60;59.00;;;;;;5081230;28;20199;-43
2023/09/05 07:00:15;;;;;;;28.63;7.97;;;19.60;59.00;;;;;;5078418;28;20239;-43
2023/09/05 07:02:43;;;;;;;29.35;8.75;;;19.60;59.00;;;;;;5051227;28;20215;-43
2023/09/05 07:05:10;;;;;;;19.05;7.72;;;19.60;58.90;;;;;;5081282;28;20211;-34
2023/09/05 07:07:37;;;;;;;12.85;6.78;;;19.60;58.90;;;;;;5070900;28;20268;-34
2023/09/05 07:10:07;;;;;;;9.70;5.22;;;19.60;58.80;;;;;;5068865;28;20205;-34
2023/09/05 07:12:35;;;;;;;9.93;5.53;;;19.70;58.80;;;;;;5070280;28;20199;-34
2023/09/05 07:15:05;;;;;;;8.82;4.88;;;19.70;58.70;;;;;;5082241;28;20222;-34
2023/09/05 07:17:32;;;;;;;10.30;4.78;;;19.70;58.70;;;;;;5069151;28;20200;-43
2023/09/05 07:20:00;;;;;;;7.88;4.40;;;19.70;58.70;;;;;;5050733;28;20207;-43
2023/09/05 07:22:31;;;;;;;10.07;4.40;;;19.70;58.80;;;;;;5087680;28;20191;-43
2023/09/05 07:25:01;;;;;;;6.90;4.07;;;19.80;58.90;;;;;;5078945;28;20306;-43
2023/09/05 07:27:30;;;;;;;6.15;3.22;;;19.80;58.90;;;;;;5068447;28;20199;-43
2023/09/05 07:30:00;;;;;;;7.97;3.65;;;19.80;59.00;;;;;;5068048;28;20287;-43
2023/09/05 07:32:27;;;;;;;7.20;3.42;;;19.90;59.10;;;;;;5054853;28;20282;-43
2023/09/05 07:34:56;;;;;;;7.30;3.67;;;20.00;59.10;;;;;;5082987;28;20207;-43
2023/09/05 07:37:24;;;;;;;5.15;3.22;;;20.00;59.20;;;;;;5077470;28;20545;-43
2023/09/05 07:39:53;;;;;;;5.97;3.13;;;20.10;59.20;;;;;;5063787;28;20204;-42
2023/09/05 07:42:20;;;;;;;6.43;3.55;;;20.20;59.20;;;;;;5059226;28;20211;-43
2023/09/05 07:44:47;;;;;;;6.15;3.13;;;20.20;59.20;;;;;;5069009;28;20235;-43
2023/09/05 07:47:15;;;;;;;3.97;2.47;;;20.30;59.20;;;;;;5086569;28;20199;-43
2023/09/05 07:49:44;;;;;;;4.15;2.97;;;20.40;59.20;;;;;;5087111;28;20215;-43
2023/09/05 07:52:12;;;;;;;5.25;2.67;;;20.40;59.10;;;;;;5085890;28;20230;-34
2023/09/05 07:54:41;;;;;;;4.30;2.45;;;20.50;59.00;;;;;;5074740;28;20196;-34
2023/09/05 07:57:14;;;;;;;2.80;2.40;;;20.60;59.00;;;;;;5049610;28;20211;-34
2023/09/05 07:59:44;;;;;;;4.15;2.42;;;20.60;59.00;;;;;;5067948;28;20219;-34
2023/09/05 08:02:11;;;;;;;7.18;2.83;;;20.70;59.00;;;;;;5074210;28;20728;-34
2023/09/05 08:04:39;;;;;;;4.50;2.42;;;20.70;58.90;;;;;;5067163;28;20211;-34
2023/09/05 08:07:09;;;;;;;4.88;2.72;;;20.80;59.00;;;;;;5092935;28;20218;-34
2023/09/05 08:09:36;;;;;;;5.40;2.60;;;20.90;59.00;;;;;;5087682;28;20321;-34
2023/09/05 08:12:04;;;;;;;2.53;2.33;;;20.90;58.90;;;;;;5087699;28;20276;-34
2023/09/05 08:14:33;;;;;;;3.10;2.28;;;21.00;58.90;;;;;;5086768;28;20199;-34
2023/09/05 08:17:03;;;;;;;3.10;2.28;;;21.10;58.90;;;;;;5087859;28;20233;-34
2023/09/05 08:19:31;;;;;;;3.08;2.10;;;21.10;58.90;;;;;;5088007;28;20281;-34
2023/09/05 08:22:03;;;;;;;5.07;1.95;;;21.20;58.80;;;;;;5058426;28;20215;-34
2023/09/05 08:24:30;;;;;;;5.18;2.55;;;21.20;58.70;;;;;;5049489;28;20204;-44
2023/09/05 08:26:57;;;;;;;4.60;2.25;;;21.30;58.70;;;;;;5067453;28;20302;-43
2023/09/05 08:29:27;;;;;;;2.85;2.10;;;21.40;58.70;;;;;;5048520;28;20191;-43
2023/09/05 08:31:54;;;;;;;2.78;1.90;;;21.50;58.70;;;;;;5053009;28;20234;-43
2023/09/05 08:34:26;;;;;;;2.83;1.95;;;21.50;58.50;;;;;;5084491;28;20195;-43
2023/09/05 08:36:53;;;;;;;4.03;2.15;;;21.60;58.60;;;;;;5083699;28;20301;-43
2023/09/05 08:39:20;;;;;;;3.78;1.90;;;21.70;58.60;;;;;;5085946;28;20671;-43
2023/09/05 08:41:52;;;;;;;3.97;2.25;;;21.70;58.30;;;;;;5081837;28;20241;-43
2023/09/05 08:44:21;;;;;;;2.63;1.90;;;21.80;58.50;;;;;;5054983;28;20215;-42
2023/09/05 08:46:50;;;;;;;2.97;2.58;;;21.90;58.50;;;;;;5083549;28;20576;-43
2023/09/05 08:49:17;;;;;;;3.30;2.08;;;22.00;58.50;;;;;;5082006;28;20285;-43
2023/09/05 08:51:49;;;;;;;2.55;2.03;;;22.00;58.40;;;;;;5051525;28;20537;-42
2023/09/05 08:54:19;;;;;;;4.15;2.25;;;22.10;58.50;;;;;;5067110;28;20631;-43
2023/09/05 08:56:51;;;;;;;4.18;2.10;;;22.20;58.50;;;;;;5069544;28;20581;-43
2023/09/05 08:59:18;;;;;;;2.50;2.00;;;22.30;58.50;;;;;;5077032;28;20221;-42
2023/09/05 09:01:47;;;;;;;2.78;2.03;;;22.40;58.50;;;;;;5069992;28;20231;-43
2023/09/05 09:04:16;;;;;;;2.55;2.00;;;22.40;58.50;;;;;;5055845;28;20700;-42
2023/09/05 09:06:44;;;;;;;4.32;1.95;;;22.50;58.40;;;;;;5072423;28;20209;-43
2023/09/05 09:09:36;;;;;;;3.35;1.90;;;22.60;58.40;;;;;;5090040;28;20226;-42
2023/09/05 09:12:09;;;;;;;4.40;2.33;;;22.70;58.30;;;;;;5089141;28;20223;-43
2023/09/05 09:14:36;;;;;;;3.83;2.05;;;22.70;58.20;;;;;;5072176;28;20375;-43
2023/09/05 09:17:06;;;;;;;4.43;2.22;;;22.80;58.30;;;;;;5070872;28;20315;-42
2023/09/05 09:19:33;;;;;;;2.25;1.85;;;22.80;58.80;;;;;;5071142;28;20199;-42
2023/09/05 09:22:02;;;;;;;2.90;1.98;;;22.90;58.30;;;;;;5070114;28;20599;-42
2023/09/05 09:24:33;;;;;;;4.78;2.03;;;22.90;58.10;;;;;;5083826;28;20225;-42
2023/09/05 09:27:02;;;;;;;2.58;2.13;;;23.00;58.20;;;;;;5067155;28;20203;-43
2023/09/05 09:29:33;;;;;;;4.32;2.17;;;23.10;58.20;;;;;;5069391;28;20582;-42
2023/09/05 09:32:05;;;;;;;4.47;2.33;;;23.10;58.10;;;;;;5059983;28;20241;-42
2023/09/05 09:34:35;;;;;;;3.10;2.33;;;23.20;58.10;;;;;;5067271;28;20247;-43
2023/09/05 09:37:05;;;;;;;5.47;2.45;;;23.30;58.20;;;;;;5051643;28;20200;-43
2023/09/05 09:39:34;;;;;;;3.90;2.50;;;23.30;58.10;;;;;;5070282;28;20281;-43
2023/09/05 09:42:01;;;;;;;3.95;2.00;;;23.40;58.10;;;;;;5085262;28;20222;-42
2023/09/05 09:44:31;;;;;;;3.00;2.00;;;23.40;58.00;;;;;;5061488;28;20306;-42
2023/09/05 09:47:02;;;;;;;3.17;2.03;;;23.50;58.00;;;;;;5070028;28;20207;-42
2023/09/05 09:49:30;;;;;;;3.95;2.10;;;23.60;58.00;;;;;;5084061;28;20250;-42
2023/09/05 09:52:04;;;;;;;4.15;2.22;;;23.60;57.90;;;;;;5071773;28;20215;-43
2023/09/05 09:54:43;;;;;;;3.90;2.03;;;23.70;57.90;;;;;;5084788;28;20199;-42
2023/09/05 09:57:15;;;;;;;3.20;1.95;;;23.70;57.80;;;;;;5080711;28;20672;-42
2023/09/05 09:59:53;;;;;;;6.47;2.00;;;23.80;57.80;;;;;;5066084;28;20216;-42
2023/09/05 10:02:25;;;;;;;3.55;2.15;;;23.90;57.80;;;;;;5073453;28;20298;-43
2023/09/05 10:04:57;;;;;;;2.75;2.20;;;23.90;57.80;;;;;;5087311;28;20195;-42
2023/09/05 10:07:25;;;;;;;4.57;2.55;;;24.00;57.80;;;;;;5070389;28;20256;-43
2023/09/05 10:09:53;;;;;;;4.13;2.05;;;24.00;57.80;;;;;;5089880;28;20229;-43
2023/09/05 10:12:25;;;;;;;3.03;1.92;;;24.10;57.70;;;;;;5081286;28;20678;-42
2023/09/05 10:14:56;;;;;;;2.00;1.77;;;24.10;57.60;;;;;;5088919;28;20301;-42
2023/09/05 10:17:30;;;;;;;2.55;2.35;;;24.20;57.60;;;;;;5050485;28;20209;-42
2023/09/05 10:19:58;;;;;;;6.50;3.00;;;24.30;57.50;;;;;;5066599;28;20880;-42
2023/09/05 10:22:29;;;;;;;2.65;2.15;;;24.30;57.60;;;;;;5077950;28;20224;-43
2023/09/05 10:24:59;;;;;;;2.60;2.17;;;24.40;57.60;;;;;;5071898;28;20550;-42
2023/09/05 10:27:29;;;;;;;3.10;1.95;;;24.40;57.60;;;;;;5066147;28;20310;-42
2023/09/05 10:29:57;;;;;;;2.05;1.88;;;24.50;57.60;;;;;;5068056;28;20203;-42
2023/09/05 10:32:25;;;;;;;2.35;2.15;;;24.50;57.50;;;;;;5073017;28;20236;-42
2023/09/05 10:35:02;;;;;;;2.03;1.83;;;24.60;57.40;;;;;;5052193;28;20714;-42
2023/09/05 10:37:41;;;;;;;3.30;2.20;;;24.60;57.40;;;;;;5067781;28;20204;-42
2023/09/05 10:40:17;;;;;;;5.50;2.20;;;24.70;57.40;;;;;;5078855;28;20202;-42
2023/09/05 10:42:54;;;;;;;2.72;2.20;;;24.70;57.20;;;;;;5057749;28;20218;-42
2023/09/05 10:45:21;;;;;;;6.88;2.30;;;24.80;57.10;;;;;;5078264;28;20207;-43
2023/09/05 10:47:55;;;;;;;23.90;4.30;;;24.80;57.10;;;;;;5087549;28;20214;-43
2023/09/05 10:50:23;;;;;;;9.82;2.65;;;24.90;57.10;;;;;;5070097;28;20207;-42
2023/09/05 10:53:23;;;;;;;5.82;1.98;;;24.90;57.00;;;;;;5073949;28;20247;-33
2023/09/05 10:55:54;;;;;;;3.90;2.40;;;25.00;57.00;;;;;;5028927;28;20257;-33
2023/09/05 10:58:47;;;;;;;5.90;2.25;;;25.00;57.10;;;;;;5075191;28;20665;-33
2023/09/05 11:01:37;;;;;;;3.47;2.10;;;25.10;57.10;;;;;;5076831;28;20258;-33
2023/09/05 11:04:08;;;;;;;3.47;2.00;;;25.10;56.80;;;;;;5068979;28;20257;-33
2023/09/05 11:06:37;;;;;;;3.80;2.00;;;25.20;56.90;;;;;;5068933;28;20673;-33
2023/09/05 11:09:06;;;;;;;5.03;2.13;;;25.20;57.00;;;;;;5062493;28;20579;-33
2023/09/05 11:11:45;;;;;;;8.57;2.65;;;25.30;56.70;;;;;;5077000;28;20234;-33
2023/09/05 11:14:12;;;;;;;5.32;2.05;;;25.30;56.70;;;;;;5054612;28;20204;-33
2023/09/05 11:16:52;;;;;;;4.05;2.10;;;25.40;56.80;;;;;;5088927;28;20218;-34
2023/09/05 11:19:33;;;;;;;2.85;2.13;;;25.40;56.80;;;;;;5065851;28;20205;-33
2023/09/05 11:22:14;;;;;;;4.43;2.20;;;25.50;56.90;;;;;;5066082;28;20619;-33
2023/09/05 11:24:47;;;;;;;2.70;2.40;;;25.50;56.80;;;;;;5071774;28;20632;-33
2023/09/05 11:27:26;;;;;;;5.20;2.47;;;25.60;56.70;;;;;;5046670;28;20689;-43
2023/09/05 11:30:00;;;;;;;2.88;2.47;;;25.60;57.40;;;;;;5060921;28;20329;-42
2023/09/05 11:32:32;;;;;;;4.45;2.45;;;25.70;56.80;;;;;;5069661;28;20237;-42
2023/09/05 11:35:05;;;;;;;3.15;2.47;;;25.80;56.90;;;;;;5072500;28;20255;-42
2023/09/05 11:37:33;;;;;;;4.25;2.53;;;25.80;56.70;;;;;;5075355;28;20284;-42
2023/09/05 11:40:12;;;;;;;4.40;2.60;;;25.90;56.70;;;;;;5064594;28;20547;-42
2023/09/05 11:42:39;;;;;;;3.63;2.17;;;26.00;56.60;;;;;;5075808;28;20246;-42
2023/09/05 11:45:17;;;;;;;3.35;2.10;;;26.00;56.60;;;;;;5046936;28;20569;-42
2023/09/05 11:47:46;;;;;;;6.05;2.33;;;26.10;56.70;;;;;;5076295;28;20203;-42
2023/09/05 11:50:19;;;;;;;3.50;1.98;;;26.10;56.60;;;;;;5067521;28;20207;-42
2023/09/05 11:52:51;;;;;;;5.22;2.22;;;26.20;56.70;;;;;;5068310;28;20319;-34
2023/09/05 11:55:23;;;;;;;4.95;2.38;;;26.30;56.60;;;;;;5077879;28;20233;-33
2023/09/05 11:57:56;;;;;;;4.07;2.55;;;26.30;56.60;;;;;;5082400;28;20240;-33
2023/09/05 12:00:25;;;;;;;4.30;1.90;;;26.40;56.40;;;;;;5078186;28;20231;-33
2023/09/05 12:02:54;;;;;;;4.40;2.35;;;26.40;56.30;;;;;;5050282;28;20204;-33
2023/09/05 12:05:26;;;;;;;6.00;2.30;;;26.50;56.40;;;;;;5054453;28;20729;-34
2023/09/05 12:07:54;;;;;;;4.80;2.40;;;26.50;56.30;;;;;;5046544;28;20242;-33
2023/09/05 12:10:28;;;;;;;3.10;2.00;;;26.60;56.40;;;;;;5068209;28;20794;-33
2023/09/05 12:13:04;;;;;;;9.52;2.80;;;26.60;56.40;;;;;;5079552;28;20238;-33
2023/09/05 12:15:33;;;;;;;11.75;3.38;;;26.70;56.30;;;;;;5067566;28;20209;-43
2023/09/05 12:18:05;;;;;;;9.35;2.60;;;26.70;56.30;;;;;;5081620;28;20210;-41
2023/09/05 12:20:38;;;;;;;7.95;2.78;;;26.80;56.30;;;;;;5080587;28;20195;-42
2023/09/05 12:23:05;;;;;;;2.35;2.05;;;26.80;56.20;;;;;;5051923;28;20602;-42
2023/09/05 12:25:33;;;;;;;4.40;2.00;;;26.90;56.20;;;;;;5072119;28;20219;-42
2023/09/05 12:28:22;;;;;;;5.90;2.40;;;26.90;56.10;;;;;;5055594;28;20662;-42
2023/09/05 12:30:50;;;;;;;8.23;2.33;;;27.00;56.20;;;;;;5067438;28;20217;-41
2023/09/05 12:33:18;;;;;;;4.35;1.88;;;27.00;56.00;;;;;;5067250;28;20229;-42
2023/09/05 12:35:47;;;;;;;3.05;1.80;;;27.10;56.10;;;;;;5056639;28;20215;-42
2023/09/05 12:38:14;;;;;;;14.75;3.42;;;27.10;55.90;;;;;;5085102;28;20313;-42
2023/09/05 12:40:46;;;;;;;3.80;2.10;;;27.20;55.90;;;;;;5051867;28;20199;-41
2023/09/05 12:43:14;;;;;;;5.57;2.00;;;27.20;55.70;;;;;;5066847;28;20295;-42
2023/09/05 12:45:47;;;;;;;5.65;2.13;;;27.20;55.80;;;;;;5066776;28;20265;-41
2023/09/05 12:48:15;;;;;;;3.92;2.00;;;27.30;55.60;;;;;;5082971;28;20669;-42
2023/09/05 12:50:48;;;;;;;3.45;2.28;;;27.30;55.60;;;;;;5054710;28;20229;-41
2023/09/05 12:53:18;;;;;;;3.85;2.00;;;27.40;55.40;;;;;;5066054;28;20834;-33
2023/09/05 12:55:46;;;;;;;3.25;1.95;;;27.40;55.60;;;;;;5066862;28;20210;-33
2023/09/05 12:58:16;;;;;;;2.67;2.10;;;27.40;55.30;;;;;;5066785;28;20210;-33
2023/09/05 13:00:47;;;;;;;2.45;1.90;;;27.50;55.50;;;;;;5087489;28;20464;-33